sensor_id;sensor_type;location;lat;lon;timestamp;pressure;altitude;pressure_sealevel;temperature;humidity
62942;BME280;49042;47.318;19.874;2023-12-20T00:00:59;100705.94;;;0.96;100.00
62942;BME280;49042;47.318;19.874;2023-12-20T00:04:02;100699.03;;;1.44;100.00
62942;BME280;49042;47.318;19.874;2023-12-20T00:07:04;100685.28;;;1.55;100.00
62942;BME280;49042;47.318;19.874;2023-12-20T00:10:06;100679.91;;;1.64;100.00
62942;BME280;49042;47.318;19.874;2023-12-20T00:13:09;100684.81;;;1.61;100.00
62942;BME280;49042;47.318;19.874;2023-12-20T00:16:11;100682.94;;;1.22;100.00
62942;BME280;49042;47.318;19.874;2023-12-20T00:19:13;100680.38;;;1.22;100.00
62942;BME280;49042;47.318;19.874;2023-12-20T00:22:15;100680.25;;;0.96;100.00
62942;BME280;49042;47.318;19.874;2023-12-20T00:25:17;100680.59;;;1.01;100.00
62942;BME280;49042;47.318;19.874;2023-12-20T00:28:19;100674.56;;;1.01;100.00
62942;BME280;49042;47.318;19.874;2023-12-20T00:31:21;100679.12;;;1.17;100.00
62942;BME280;49042;47.318;19.874;2023-12-20T00:34:22;100671.97;;;1.49;100.00
62942;BME280;49042;47.318;19.874;2023-12-20T00:37:24;100663.94;;;1.44;100.00
62942;BME280;49042;47.318;19.874;2023-12-20T00:40:26;100656.56;;;1.49;100.00
62942;BME280;49042;47.318;19.874;2023-12-20T00:43:27;100652.38;;;1.63;100.00
62942;BME280;49042;47.318;19.874;2023-12-20T00:46:29;100643.44;;;1.70;100.00
62942;BME280;49042;47.318;19.874;2023-12-20T00:49:31;100639.88;;;1.56;100.00
62942;BME280;49042;47.318;19.874;2023-12-20T00:52:33;100637.31;;;1.56;100.00
62942;BME280;49042;47.318;19.874;2023-12-20T00:55:34;100630.75;;;1.35;100.00
62942;BME280;49042;47.318;19.874;2023-12-20T00:58:36;100625.44;;;1.20;100.00
62942;BME280;49042;47.318;19.874;2023-12-20T01:01:38;100630.94;;;0.54;100.00
62942;BME280;49042;47.318;19.874;2023-12-20T01:04:40;100631.41;;;0.26;100.00
62942;BME280;49042;47.318;19.874;2023-12-20T01:07:41;100608.50;;;0.05;100.00
62942;BME280;49042;47.318;19.874;2023-12-20T01:10:43;100614.13;;;0.82;100.00
62942;BME280;49042;47.318;19.874;2023-12-20T01:13:45;100603.09;;;0.95;100.00
62942;BME280;49042;47.318;19.874;2023-12-20T01:16:47;100593.03;;;0.74;100.00
62942;BME280;49042;47.318;19.874;2023-12-20T01:19:48;100595.34;;;1.31;100.00
62942;BME280;49042;47.318;19.874;2023-12-20T01:22:50;100589.97;;;1.40;100.00
62942;BME280;49042;47.318;19.874;2023-12-20T01:25:52;100577.25;;;1.30;100.00
62942;BME280;49042;47.318;19.874;2023-12-20T01:28:53;100577.53;;;1.46;100.00
62942;BME280;49042;47.318;19.874;2023-12-20T01:31:55;100569.97;;;1.24;100.00
62942;BME280;49042;47.318;19.874;2023-12-20T01:34:57;100569.25;;;1.13;100.00
62942;BME280;49042;47.318;19.874;2023-12-20T01:38:03;100558.09;;;0.88;100.00
62942;BME280;49042;47.318;19.874;2023-12-20T01:41:04;100544.00;;;0.95;100.00
62942;BME280;49042;47.318;19.874;2023-12-20T01:44:06;100542.44;;;0.97;100.00
62942;BME280;49042;47.318;19.874;2023-12-20T01:47:08;100534.50;;;0.82;100.00
62942;BME280;49042;47.318;19.874;2023-12-20T01:50:10;100534.16;;;0.17;100.00
62942;BME280;49042;47.318;19.874;2023-12-20T01:53:12;100529.16;;;0.30;100.00
62942;BME280;49042;47.318;19.874;2023-12-20T01:56:16;100531.81;;;0.20;100.00
62942;BME280;49042;47.318;19.874;2023-12-20T01:59:19;100526.50;;;0.65;100.00
62942;BME280;49042;47.318;19.874;2023-12-20T02:02:21;100526.59;;;0.79;100.00
62942;BME280;49042;47.318;19.874;2023-12-20T02:05:23;100525.59;;;0.64;100.00
62942;BME280;49042;47.318;19.874;2023-12-20T02:08:27;100520.00;;;0.34;100.00
62942;BME280;49042;47.318;19.874;2023-12-20T02:11:29;100518.13;;;0.80;100.00
62942;BME280;49042;47.318;19.874;2023-12-20T02:14:30;100508.53;;;0.65;100.00
62942;BME280;49042;47.318;19.874;2023-12-20T02:17:32;100499.66;;;0.98;100.00
62942;BME280;49042;47.318;19.874;2023-12-20T02:20:34;100491.91;;;1.10;100.00
62942;BME280;49042;47.318;19.874;2023-12-20T02:23:36;100491.66;;;0.57;100.00
62942;BME280;49042;47.318;19.874;2023-12-20T02:26:38;100491.53;;;0.07;100.00
62942;BME280;49042;47.318;19.874;2023-12-20T02:29:40;100476.38;;;0.10;100.00
62942;BME280;49042;47.318;19.874;2023-12-20T02:32:41;100485.16;;;0.02;100.00
62942;BME280;49042;47.318;19.874;2023-12-20T02:35:43;100469.78;;;0.50;100.00
62942;BME280;49042;47.318;19.874;2023-12-20T02:38:45;100466.72;;;-0.17;100.00
62942;BME280;49042;47.318;19.874;2023-12-20T02:41:46;100454.53;;;0.27;100.00
62942;BME280;49042;47.318;19.874;2023-12-20T02:44:48;100442.25;;;0.35;100.00
62942;BME280;49042;47.318;19.874;2023-12-20T02:47:50;100432.53;;;0.43;100.00
62942;BME280;49042;47.318;19.874;2023-12-20T02:50:51;100434.41;;;0.58;100.00
62942;BME280;49042;47.318;19.874;2023-12-20T02:53:53;100439.12;;;0.27;100.00
62942;BME280;49042;47.318;19.874;2023-12-20T02:56:55;100435.09;;;0.19;100.00
62942;BME280;49042;47.318;19.874;2023-12-20T02:59:57;100430.28;;;0.36;100.00
62942;BME280;49042;47.318;19.874;2023-12-20T03:02:58;100424.94;;;0.32;100.00
62942;BME280;49042;47.318;19.874;2023-12-20T03:06:01;100422.22;;;0.79;100.00
62942;BME280;49042;47.318;19.874;2023-12-20T03:09:03;100419.63;;;0.79;100.00
62942;BME280;49042;47.318;19.874;2023-12-20T03:12:05;100420.75;;;0.71;100.00
62942;BME280;49042;47.318;19.874;2023-12-20T03:15:07;100414.06;;;0.73;100.00
62942;BME280;49042;47.318;19.874;2023-12-20T03:18:09;100416.81;;;0.38;100.00
62942;BME280;49042;47.318;19.874;2023-12-20T03:21:10;100406.00;;;0.30;100.00
62942;BME280;49042;47.318;19.874;2023-12-20T03:24:12;100409.22;;;0.40;100.00
62942;BME280;49042;47.318;19.874;2023-12-20T03:27:14;100406.78;;;0.17;100.00
62942;BME280;49042;47.318;19.874;2023-12-20T03:30:16;100417.81;;;0.16;100.00
62942;BME280;49042;47.318;19.874;2023-12-20T03:33:17;100406.78;;;0.05;100.00
62942;BME280;49042;47.318;19.874;2023-12-20T03:36:20;100394.19;;;0.20;100.00
62942;BME280;49042;47.318;19.874;2023-12-20T03:39:21;100390.81;;;0.21;100.00
62942;BME280;49042;47.318;19.874;2023-12-20T03:42:23;100388.81;;;0.05;100.00
62942;BME280;49042;47.318;19.874;2023-12-20T03:45:25;100384.81;;;0.21;100.00
62942;BME280;49042;47.318;19.874;2023-12-20T03:48:26;100381.66;;;0.49;100.00
62942;BME280;49042;47.318;19.874;2023-12-20T03:51:28;100387.66;;;0.62;100.00
62942;BME280;49042;47.318;19.874;2023-12-20T03:54:30;100392.44;;;0.69;100.00
62942;BME280;49042;47.318;19.874;2023-12-20T03:57:32;100392.84;;;0.76;100.00
62942;BME280;49042;47.318;19.874;2023-12-20T04:00:33;100382.03;;;0.68;100.00
62942;BME280;49042;47.318;19.874;2023-12-20T04:03:35;100371.97;;;0.71;100.00
62942;BME280;49042;47.318;19.874;2023-12-20T04:06:38;100371.94;;;0.33;100.00
62942;BME280;49042;47.318;19.874;2023-12-20T04:09:40;100360.69;;;0.31;100.00
62942;BME280;49042;47.318;19.874;2023-12-20T04:12:42;100365.28;;;0.35;100.00
62942;BME280;49042;47.318;19.874;2023-12-20T04:15:44;100357.88;;;0.40;100.00
62942;BME280;49042;47.318;19.874;2023-12-20T04:18:46;100350.72;;;0.60;100.00
62942;BME280;49042;47.318;19.874;2023-12-20T04:21:48;100349.69;;;0.70;100.00
62942;BME280;49042;47.318;19.874;2023-12-20T04:24:50;100352.66;;;0.76;100.00
62942;BME280;49042;47.318;19.874;2023-12-20T04:27:52;100345.87;;;0.27;100.00
62942;BME280;49042;47.318;19.874;2023-12-20T04:30:53;100345.94;;;0.40;100.00
62942;BME280;49042;47.318;19.874;2023-12-20T04:33:55;100349.63;;;0.56;100.00
62942;BME280;49042;47.318;19.874;2023-12-20T04:36:57;100350.53;;;0.82;100.00
62942;BME280;49042;47.318;19.874;2023-12-20T04:39:59;100345.63;;;0.36;100.00
62942;BME280;49042;47.318;19.874;2023-12-20T04:43:01;100357.47;;;0.71;100.00
62942;BME280;49042;47.318;19.874;2023-12-20T04:46:03;100367.22;;;0.63;100.00
62942;BME280;49042;47.318;19.874;2023-12-20T04:49:05;100359.84;;;0.68;100.00
62942;BME280;49042;47.318;19.874;2023-12-20T04:52:07;100348.53;;;0.28;100.00
62942;BME280;49042;47.318;19.874;2023-12-20T04:55:08;100350.31;;;0.29;100.00
62942;BME280;49042;47.318;19.874;2023-12-20T04:58:10;100351.81;;;0.63;100.00
62942;BME280;49042;47.318;19.874;2023-12-20T05:01:13;100360.84;;;0.70;100.00
62942;BME280;49042;47.318;19.874;2023-12-20T05:04:15;100357.53;;;0.59;100.00
62942;BME280;49042;47.318;19.874;2023-12-20T05:07:16;100354.19;;;0.48;100.00
62942;BME280;49042;47.318;19.874;2023-12-20T05:10:18;100371.41;;;0.37;100.00
62942;BME280;49042;47.318;19.874;2023-12-20T05:13:20;100357.19;;;0.55;100.00
62942;BME280;49042;47.318;19.874;2023-12-20T05:16:23;100356.81;;;0.74;100.00
62942;BME280;49042;47.318;19.874;2023-12-20T05:19:25;100353.56;;;0.77;100.00
62942;BME280;49042;47.318;19.874;2023-12-20T05:22:28;100349.75;;;0.83;100.00
62942;BME280;49042;47.318;19.874;2023-12-20T05:25:30;100348.28;;;0.87;100.00
62942;BME280;49042;47.318;19.874;2023-12-20T05:28:31;100352.56;;;1.00;100.00
62942;BME280;49042;47.318;19.874;2023-12-20T05:31:33;100352.41;;;1.11;100.00
62942;BME280;49042;47.318;19.874;2023-12-20T05:34:35;100341.25;;;0.84;100.00
62942;BME280;49042;47.318;19.874;2023-12-20T05:37:38;100334.72;;;1.02;100.00
62942;BME280;49042;47.318;19.874;2023-12-20T05:40:40;100336.13;;;0.84;100.00
62942;BME280;49042;47.318;19.874;2023-12-20T05:43:42;100334.28;;;0.95;100.00
62942;BME280;49042;47.318;19.874;2023-12-20T05:46:44;100328.06;;;0.92;100.00
62942;BME280;49042;47.318;19.874;2023-12-20T05:49:45;100322.94;;;0.92;100.00
62942;BME280;49042;47.318;19.874;2023-12-20T05:52:47;100320.03;;;0.87;100.00
62942;BME280;49042;47.318;19.874;2023-12-20T05:55:49;100313.69;;;0.44;100.00
62942;BME280;49042;47.318;19.874;2023-12-20T05:58:50;100316.22;;;0.06;100.00
62942;BME280;49042;47.318;19.874;2023-12-20T06:01:52;100304.66;;;0.75;100.00
62942;BME280;49042;47.318;19.874;2023-12-20T06:04:54;100289.69;;;0.06;100.00
62942;BME280;49042;47.318;19.874;2023-12-20T06:07:56;100290.63;;;0.32;100.00
62942;BME280;49042;47.318;19.874;2023-12-20T06:11:03;100283.53;;;0.28;100.00
62942;BME280;49042;47.318;19.874;2023-12-20T06:14:04;100281.47;;;-0.26;100.00
62942;BME280;49042;47.318;19.874;2023-12-20T06:17:06;100275.19;;;-0.06;100.00
62942;BME280;49042;47.318;19.874;2023-12-20T06:20:09;100266.34;;;0.27;100.00
62942;BME280;49042;47.318;19.874;2023-12-20T06:23:11;100254.72;;;-0.54;100.00
62942;BME280;49042;47.318;19.874;2023-12-20T06:26:13;100258.50;;;-0.37;100.00
62942;BME280;49042;47.318;19.874;2023-12-20T06:29:14;100260.72;;;-0.05;100.00
62942;BME280;49042;47.318;19.874;2023-12-20T06:32:16;100252.38;;;-0.39;100.00
62942;BME280;49042;47.318;19.874;2023-12-20T06:35:18;100239.59;;;-1.44;100.00
62942;BME280;49042;47.318;19.874;2023-12-20T06:38:20;100244.56;;;-1.35;100.00
62942;BME280;49042;47.318;19.874;2023-12-20T06:41:22;100259.59;;;0.03;100.00
62942;BME280;49042;47.318;19.874;2023-12-20T06:44:26;100256.16;;;-0.22;100.00
62942;BME280;49042;47.318;19.874;2023-12-20T06:47:27;100261.56;;;0.07;100.00
62942;BME280;49042;47.318;19.874;2023-12-20T06:50:29;100247.59;;;-0.22;100.00
62942;BME280;49042;47.318;19.874;2023-12-20T06:53:31;100271.88;;;-0.05;100.00
62942;BME280;49042;47.318;19.874;2023-12-20T06:56:33;100268.75;;;-0.01;100.00
62942;BME280;49042;47.318;19.874;2023-12-20T06:59:39;100264.66;;;0.27;100.00
62942;BME280;49042;47.318;19.874;2023-12-20T07:02:41;100277.06;;;0.84;100.00
62942;BME280;49042;47.318;19.874;2023-12-20T07:05:43;100274.25;;;0.81;100.00
62942;BME280;49042;47.318;19.874;2023-12-20T07:08:45;100274.72;;;0.50;100.00
62942;BME280;49042;47.318;19.874;2023-12-20T07:11:47;100276.22;;;0.72;100.00
62942;BME280;49042;47.318;19.874;2023-12-20T07:14:49;100271.56;;;0.92;100.00
62942;BME280;49042;47.318;19.874;2023-12-20T07:17:51;100275.16;;;0.82;100.00
62942;BME280;49042;47.318;19.874;2023-12-20T07:20:52;100271.78;;;1.09;100.00
62942;BME280;49042;47.318;19.874;2023-12-20T07:23:55;100263.34;;;1.23;100.00
62942;BME280;49042;47.318;19.874;2023-12-20T07:26:58;100263.13;;;1.20;100.00
62942;BME280;49042;47.318;19.874;2023-12-20T07:30:00;100268.41;;;1.10;100.00
62942;BME280;49042;47.318;19.874;2023-12-20T07:33:02;100259.88;;;1.36;100.00
62942;BME280;49042;47.318;19.874;2023-12-20T07:36:05;100254.53;;;1.20;100.00
62942;BME280;49042;47.318;19.874;2023-12-20T07:39:07;100254.63;;;0.82;100.00
62942;BME280;49042;47.318;19.874;2023-12-20T07:42:09;100254.44;;;1.45;100.00
62942;BME280;49042;47.318;19.874;2023-12-20T07:45:10;100260.09;;;1.39;100.00
62942;BME280;49042;47.318;19.874;2023-12-20T07:48:13;100263.44;;;1.52;100.00
62942;BME280;49042;47.318;19.874;2023-12-20T07:51:15;100266.44;;;1.45;100.00
62942;BME280;49042;47.318;19.874;2023-12-20T07:54:17;100277.09;;;1.37;100.00
62942;BME280;49042;47.318;19.874;2023-12-20T07:57:19;100288.47;;;1.68;100.00
62942;BME280;49042;47.318;19.874;2023-12-20T08:00:21;100297.28;;;1.45;100.00
62942;BME280;49042;47.318;19.874;2023-12-20T08:03:22;100297.34;;;1.46;100.00
62942;BME280;49042;47.318;19.874;2023-12-20T08:06:24;100305.66;;;1.42;100.00
62942;BME280;49042;47.318;19.874;2023-12-20T08:09:26;100291.81;;;1.81;100.00
62942;BME280;49042;47.318;19.874;2023-12-20T08:12:28;100303.41;;;1.08;100.00
62942;BME280;49042;47.318;19.874;2023-12-20T08:15:29;100306.03;;;1.35;100.00
62942;BME280;49042;47.318;19.874;2023-12-20T08:18:31;100298.44;;;1.36;100.00
62942;BME280;49042;47.318;19.874;2023-12-20T08:21:33;100294.78;;;1.74;100.00
62942;BME280;49042;47.318;19.874;2023-12-20T08:24:39;100285.41;;;1.74;100.00
62942;BME280;49042;47.318;19.874;2023-12-20T08:27:41;100281.34;;;1.91;100.00
62942;BME280;49042;47.318;19.874;2023-12-20T08:30:43;100279.75;;;1.53;100.00
62942;BME280;49042;47.318;19.874;2023-12-20T08:33:46;100279.62;;;1.24;100.00
62942;BME280;49042;47.318;19.874;2023-12-20T08:36:48;100290.94;;;1.39;100.00
62942;BME280;49042;47.318;19.874;2023-12-20T08:39:49;100290.22;;;1.42;100.00
62942;BME280;49042;47.318;19.874;2023-12-20T08:42:51;100285.91;;;1.41;100.00
62942;BME280;49042;47.318;19.874;2023-12-20T08:45:53;100275.69;;;1.56;100.00
62942;BME280;49042;47.318;19.874;2023-12-20T08:48:54;100274.53;;;1.37;100.00
62942;BME280;49042;47.318;19.874;2023-12-20T08:51:57;100274.53;;;1.78;100.00
62942;BME280;49042;47.318;19.874;2023-12-20T08:54:58;100278.06;;;1.80;100.00
62942;BME280;49042;47.318;19.874;2023-12-20T08:58:00;100272.53;;;1.60;100.00
62942;BME280;49042;47.318;19.874;2023-12-20T09:01:02;100269.19;;;1.89;100.00
62942;BME280;49042;47.318;19.874;2023-12-20T09:04:04;100266.53;;;1.87;100.00
62942;BME280;49042;47.318;19.874;2023-12-20T09:07:23;100261.72;;;2.21;100.00
62942;BME280;49042;47.318;19.874;2023-12-20T09:10:26;100260.59;;;2.31;100.00
62942;BME280;49042;47.318;19.874;2023-12-20T09:13:27;100250.53;;;2.20;100.00
62942;BME280;49042;47.318;19.874;2023-12-20T09:16:30;100244.91;;;2.41;100.00
62942;BME280;49042;47.318;19.874;2023-12-20T09:19:33;100238.03;;;2.27;100.00
62942;BME280;49042;47.318;19.874;2023-12-20T09:22:35;100242.75;;;1.91;100.00
62942;BME280;49042;47.318;19.874;2023-12-20T09:25:37;100229.69;;;1.88;100.00
62942;BME280;49042;47.318;19.874;2023-12-20T09:28:39;100218.62;;;2.32;100.00
62942;BME280;49042;47.318;19.874;2023-12-20T09:31:42;100217.72;;;2.60;100.00
62942;BME280;49042;47.318;19.874;2023-12-20T09:34:45;100212.94;;;2.97;100.00
62942;BME280;49042;47.318;19.874;2023-12-20T09:37:47;100206.81;;;2.95;100.00
62942;BME280;49042;47.318;19.874;2023-12-20T09:40:49;100204.56;;;2.55;100.00
62942;BME280;49042;47.318;19.874;2023-12-20T09:43:54;100195.12;;;3.00;100.00
62942;BME280;49042;47.318;19.874;2023-12-20T09:46:56;100212.38;;;2.72;100.00
62942;BME280;49042;47.318;19.874;2023-12-20T09:49:58;100227.06;;;2.16;100.00
62942;BME280;49042;47.318;19.874;2023-12-20T09:53:02;100231.09;;;1.97;100.00
62942;BME280;49042;47.318;19.874;2023-12-20T09:56:06;100221.31;;;2.49;100.00
62942;BME280;49042;47.318;19.874;2023-12-20T09:59:08;100215.69;;;2.26;100.00
62942;BME280;49042;47.318;19.874;2023-12-20T10:02:13;100209.28;;;2.05;100.00
62942;BME280;49042;47.318;19.874;2023-12-20T10:05:17;100186.56;;;2.27;100.00
62942;BME280;49042;47.318;19.874;2023-12-20T10:08:22;100184.66;;;2.53;100.00
62942;BME280;49042;47.318;19.874;2023-12-20T10:11:25;100197.19;;;2.18;100.00
62942;BME280;49042;47.318;19.874;2023-12-20T10:14:27;100199.84;;;1.90;100.00
62942;BME280;49042;47.318;19.874;2023-12-20T10:17:29;100215.75;;;1.85;100.00
62942;BME280;49042;47.318;19.874;2023-12-20T10:20:31;100221.78;;;1.85;100.00
62942;BME280;49042;47.318;19.874;2023-12-20T10:23:33;100205.88;;;2.20;100.00
62942;BME280;49042;47.318;19.874;2023-12-20T10:26:35;100192.00;;;2.75;100.00
62942;BME280;49042;47.318;19.874;2023-12-20T10:29:38;100193.16;;;2.37;100.00
62942;BME280;49042;47.318;19.874;2023-12-20T10:32:40;100171.09;;;2.71;100.00
62942;BME280;49042;47.318;19.874;2023-12-20T10:35:42;100166.72;;;2.39;100.00
62942;BME280;49042;47.318;19.874;2023-12-20T10:38:49;100163.34;;;2.40;100.00
62942;BME280;49042;47.318;19.874;2023-12-20T10:41:51;100154.50;;;2.96;100.00
62942;BME280;49042;47.318;19.874;2023-12-20T10:44:53;100151.63;;;3.53;100.00
62942;BME280;49042;47.318;19.874;2023-12-20T10:47:56;100154.16;;;2.89;100.00
62942;BME280;49042;47.318;19.874;2023-12-20T10:50:57;100164.78;;;2.65;100.00
62942;BME280;49042;47.318;19.874;2023-12-20T10:53:59;100157.06;;;2.81;100.00
62942;BME280;49042;47.318;19.874;2023-12-20T10:57:03;100148.28;;;2.92;100.00
62942;BME280;49042;47.318;19.874;2023-12-20T11:00:08;100142.25;;;3.71;100.00
62942;BME280;49042;47.318;19.874;2023-12-20T11:03:13;100140.19;;;3.01;100.00
62942;BME280;49042;47.318;19.874;2023-12-20T11:06:33;100138.63;;;3.35;100.00
62942;BME280;49042;47.318;19.874;2023-12-20T11:09:40;100131.22;;;4.41;100.00
62942;BME280;49042;47.318;19.874;2023-12-20T11:12:58;100119.47;;;3.95;100.00
62942;BME280;49042;47.318;19.874;2023-12-20T11:16:05;100113.00;;;3.87;100.00
62942;BME280;49042;47.318;19.874;2023-12-20T11:19:07;100121.72;;;4.23;100.00
62942;BME280;49042;47.318;19.874;2023-12-20T11:22:09;100108.72;;;4.38;100.00
62942;BME280;49042;47.318;19.874;2023-12-20T11:25:11;100090.56;;;4.20;100.00
62942;BME280;49042;47.318;19.874;2023-12-20T11:28:13;100077.72;;;4.21;100.00
62942;BME280;49042;47.318;19.874;2023-12-20T11:31:15;100071.41;;;4.68;100.00
62942;BME280;49042;47.318;19.874;2023-12-20T11:34:17;100060.19;;;3.80;100.00
62942;BME280;49042;47.318;19.874;2023-12-20T11:37:20;100051.47;;;4.65;100.00
62942;BME280;49042;47.318;19.874;2023-12-20T11:40:23;100042.97;;;4.14;100.00
62942;BME280;49042;47.318;19.874;2023-12-20T11:43:31;100035.03;;;4.28;100.00
62942;BME280;49042;47.318;19.874;2023-12-20T11:46:34;100034.72;;;3.70;100.00
62942;BME280;49042;47.318;19.874;2023-12-20T11:49:36;100037.81;;;4.14;100.00
62942;BME280;49042;47.318;19.874;2023-12-20T11:52:38;100021.84;;;3.53;100.00
62942;BME280;49042;47.318;19.874;2023-12-20T11:55:39;100033.44;;;4.30;100.00
62942;BME280;49042;47.318;19.874;2023-12-20T11:58:41;100035.03;;;4.28;100.00
62942;BME280;49042;47.318;19.874;2023-12-20T12:01:50;100028.47;;;4.00;100.00
62942;BME280;49042;47.318;19.874;2023-12-20T12:04:53;100012.47;;;3.72;100.00
62942;BME280;49042;47.318;19.874;2023-12-20T12:07:55;100020.81;;;4.01;100.00
62942;BME280;49042;47.318;19.874;2023-12-20T12:10:57;100037.97;;;3.17;100.00
62942;BME280;49042;47.318;19.874;2023-12-20T12:13:59;100030.22;;;3.00;100.00
62942;BME280;49042;47.318;19.874;2023-12-20T12:17:01;100026.41;;;3.59;100.00
62942;BME280;49042;47.318;19.874;2023-12-20T12:20:04;100013.84;;;3.31;100.00
62942;BME280;49042;47.318;19.874;2023-12-20T12:23:07;100011.84;;;3.42;100.00
62942;BME280;49042;47.318;19.874;2023-12-20T12:26:08;100009.78;;;3.53;100.00
62942;BME280;49042;47.318;19.874;2023-12-20T12:29:10;99991.84;;;3.38;100.00
62942;BME280;49042;47.318;19.874;2023-12-20T12:32:12;100000.03;;;3.64;100.00
62942;BME280;49042;47.318;19.874;2023-12-20T12:35:14;99988.06;;;3.31;100.00
62942;BME280;49042;47.318;19.874;2023-12-20T12:38:20;99998.63;;;4.05;100.00
62942;BME280;49042;47.318;19.874;2023-12-20T12:41:21;100012.88;;;3.80;100.00
62942;BME280;49042;47.318;19.874;2023-12-20T12:44:23;100030.19;;;3.49;100.00
62942;BME280;49042;47.318;19.874;2023-12-20T12:47:28;100046.94;;;3.40;100.00
62942;BME280;49042;47.318;19.874;2023-12-20T12:50:30;100049.16;;;3.49;100.00
62942;BME280;49042;47.318;19.874;2023-12-20T12:53:32;100050.03;;;3.67;100.00
62942;BME280;49042;47.318;19.874;2023-12-20T12:56:34;100059.81;;;4.24;100.00
62942;BME280;49042;47.318;19.874;2023-12-20T12:59:36;100049.53;;;3.91;100.00
62942;BME280;49042;47.318;19.874;2023-12-20T13:02:41;100048.47;;;4.56;100.00
62942;BME280;49042;47.318;19.874;2023-12-20T13:05:43;100029.03;;;4.11;100.00
62942;BME280;49042;47.318;19.874;2023-12-20T13:08:47;100038.62;;;4.85;100.00
62942;BME280;49042;47.318;19.874;2023-12-20T13:11:49;100025.94;;;5.08;100.00
62942;BME280;49042;47.318;19.874;2023-12-20T13:14:51;100013.09;;;5.70;100.00
62942;BME280;49042;47.318;19.874;2023-12-20T13:17:53;100005.41;;;5.91;100.00
62942;BME280;49042;47.318;19.874;2023-12-20T13:20:55;100002.47;;;5.83;100.00
62942;BME280;49042;47.318;19.874;2023-12-20T13:23:56;100002.91;;;5.33;100.00
62942;BME280;49042;47.318;19.874;2023-12-20T13:26:58;100000.50;;;4.99;100.00
62942;BME280;49042;47.318;19.874;2023-12-20T13:30:00;100002.13;;;4.59;100.00
62942;BME280;49042;47.318;19.874;2023-12-20T13:33:01;100005.66;;;4.79;100.00
62942;BME280;49042;47.318;19.874;2023-12-20T13:36:04;99996.56;;;5.26;100.00
62942;BME280;49042;47.318;19.874;2023-12-20T13:39:08;100002.31;;;5.20;100.00
62942;BME280;49042;47.318;19.874;2023-12-20T13:42:10;100006.22;;;5.30;100.00
62942;BME280;49042;47.318;19.874;2023-12-20T13:45:12;99996.44;;;5.43;100.00
62942;BME280;49042;47.318;19.874;2023-12-20T13:48:13;99995.44;;;5.01;100.00
62942;BME280;49042;47.318;19.874;2023-12-20T13:51:15;100000.19;;;4.55;100.00
62942;BME280;49042;47.318;19.874;2023-12-20T13:54:17;99990.66;;;4.54;100.00
62942;BME280;49042;47.318;19.874;2023-12-20T13:57:22;99997.47;;;4.52;100.00
62942;BME280;49042;47.318;19.874;2023-12-20T14:00:43;99993.25;;;4.54;100.00
62942;BME280;49042;47.318;19.874;2023-12-20T14:03:45;99989.19;;;4.41;100.00
62942;BME280;49042;47.318;19.874;2023-12-20T14:06:47;99995.47;;;4.11;100.00
62942;BME280;49042;47.318;19.874;2023-12-20T14:09:49;100000.37;;;4.23;100.00
62942;BME280;49042;47.318;19.874;2023-12-20T14:12:51;99996.16;;;3.90;100.00
62942;BME280;49042;47.318;19.874;2023-12-20T14:15:53;99990.50;;;3.97;100.00
62942;BME280;49042;47.318;19.874;2023-12-20T14:18:55;99986.63;;;4.05;100.00
62942;BME280;49042;47.318;19.874;2023-12-20T14:21:59;99988.25;;;3.87;100.00
62942;BME280;49042;47.318;19.874;2023-12-20T14:25:05;99979.22;;;3.95;100.00
62942;BME280;49042;47.318;19.874;2023-12-20T14:28:08;99980.63;;;3.55;100.00
62942;BME280;49042;47.318;19.874;2023-12-20T14:31:11;99978.63;;;3.32;100.00
62942;BME280;49042;47.318;19.874;2023-12-20T14:34:13;99974.91;;;3.43;100.00
62942;BME280;49042;47.318;19.874;2023-12-20T14:37:15;99980.13;;;3.79;100.00
62942;BME280;49042;47.318;19.874;2023-12-20T14:40:19;100001.09;;;3.68;100.00
62942;BME280;49042;47.318;19.874;2023-12-20T14:43:20;99990.94;;;3.55;100.00
62942;BME280;49042;47.318;19.874;2023-12-20T14:46:24;99992.16;;;3.28;100.00
62942;BME280;49042;47.318;19.874;2023-12-20T14:49:25;99996.53;;;3.46;100.00
62942;BME280;49042;47.318;19.874;2023-12-20T14:52:28;99993.78;;;3.42;100.00
62942;BME280;49042;47.318;19.874;2023-12-20T14:55:30;99998.25;;;3.13;100.00
62942;BME280;49042;47.318;19.874;2023-12-20T14:58:32;99996.78;;;3.18;100.00
62942;BME280;49042;47.318;19.874;2023-12-20T15:01:34;100007.38;;;2.91;100.00
62942;BME280;49042;47.318;19.874;2023-12-20T15:04:38;99988.84;;;2.82;100.00
62942;BME280;49042;47.318;19.874;2023-12-20T15:07:40;100001.94;;;3.18;100.00
62942;BME280;49042;47.318;19.874;2023-12-20T15:10:42;100004.94;;;3.09;100.00
62942;BME280;49042;47.318;19.874;2023-12-20T15:13:43;99998.75;;;2.91;100.00
62942;BME280;49042;47.318;19.874;2023-12-20T15:16:46;100014.81;;;3.02;100.00
62942;BME280;49042;47.318;19.874;2023-12-20T15:19:48;100023.25;;;3.31;100.00
62942;BME280;49042;47.318;19.874;2023-12-20T15:22:50;100032.31;;;3.07;100.00
62942;BME280;49042;47.318;19.874;2023-12-20T15:25:52;100035.47;;;3.18;100.00
62942;BME280;49042;47.318;19.874;2023-12-20T15:28:54;100034.81;;;3.23;100.00
62942;BME280;49042;47.318;19.874;2023-12-20T15:31:55;100046.87;;;3.07;100.00
62942;BME280;49042;47.318;19.874;2023-12-20T15:34:57;100031.19;;;2.87;100.00
62942;BME280;49042;47.318;19.874;2023-12-20T15:37:59;100028.28;;;3.13;100.00
62942;BME280;49042;47.318;19.874;2023-12-20T15:41:01;100026.13;;;3.04;100.00